createdAt,value
2023-04-02T00:01:49.423Z,7.50
2023-04-02T00:07:30.783Z,7.50
2023-04-02T00:12:32.631Z,7.50
2023-04-02T00:17:34.447Z,7.50
2023-04-02T00:22:44.611Z,7.50
2023-04-02T00:27:46.622Z,7.50
2023-04-02T00:32:48.825Z,7.50
2023-04-02T00:37:51.744Z,7.40
2023-04-02T00:42:57.440Z,7.40
2023-04-02T00:48:13.149Z,7.50
2023-04-02T00:53:26.691Z,7.50
2023-04-02T00:58:30.954Z,7.40
2023-04-02T01:03:36.623Z,7.40
2023-04-02T01:08:51.944Z,7.40
2023-04-02T01:14:13.250Z,7.40
2023-04-02T01:19:31.740Z,7.40
2023-04-02T01:24:37.260Z,7.40
2023-04-02T01:29:48.623Z,7.40
2023-04-02T01:34:52.007Z,7.40
2023-04-02T01:40:12.885Z,7.40
2023-04-02T01:45:17.852Z,7.40
2023-04-02T01:50:19.608Z,7.30
2023-04-02T01:55:49.899Z,7.30
2023-04-02T02:01:08.320Z,7.30
2023-04-02T02:06:14.961Z,7.30
2023-04-02T02:11:21.552Z,7.30
2023-04-02T02:16:24.326Z,7.30
2023-04-02T02:21:39.884Z,7.30
2023-04-02T02:26:43.065Z,7.30
2023-04-02T02:31:48.369Z,7.30
2023-04-02T02:36:56.536Z,7.30
2023-04-02T02:42:08.178Z,7.20
2023-04-02T02:47:28.275Z,7.20
2023-04-02T02:52:36.297Z,7.20
2023-04-02T02:57:49.318Z,7.20
2023-04-02T03:02:54.699Z,7.20
2023-04-02T03:07:59.840Z,7.20
2023-04-02T03:13:35.021Z,7.20
2023-04-02T03:19:06.179Z,7.20
2023-04-02T03:24:20.063Z,7.20
2023-04-02T03:29:33.045Z,7.20
2023-04-02T03:34:42.347Z,7.20
2023-04-02T03:39:59.056Z,7.10
2023-04-02T03:45:10.847Z,7.10
2023-04-02T03:50:31.121Z,7.10
2023-04-02T03:55:40.175Z,7.10
2023-04-02T04:00:49.535Z,7.10
2023-04-02T04:05:59.738Z,7.10
2023-04-02T04:11:07.850Z,7.10
2023-04-02T04:16:15.675Z,7.10
2023-04-02T04:21:31.101Z,7.10
2023-04-02T04:26:54.188Z,7.10
2023-04-02T04:32:10.906Z,7.10
2023-04-02T04:37:29.069Z,7.10
2023-04-02T04:42:35.036Z,7.10
2023-04-02T04:47:48.562Z,7.10
2023-04-02T04:52:51.959Z,7.10
2023-04-02T04:58:01.080Z,7.10
2023-04-02T05:03:28.723Z,7.10
2023-04-02T05:08:36.858Z,7.10
2023-04-02T05:13:50.195Z,7.10
2023-04-02T05:18:58.991Z,7.10
2023-04-02T05:24:27.146Z,7.10
2023-04-02T05:29:38.850Z,7.20
2023-04-02T05:34:45.434Z,7.20
2023-04-02T05:39:55.561Z,7.10
2023-04-02T05:45:19.547Z,7.10
2023-04-02T05:50:27.779Z,7.10
2023-04-02T05:55:53.399Z,7.10
2023-04-02T06:01:07.747Z,7.20
2023-04-02T06:06:41.863Z,7.10
2023-04-02T06:11:49.276Z,7.20
2023-04-02T06:16:53.264Z,7.20
2023-04-02T06:22:07.357Z,7.20
2023-04-02T06:27:14.148Z,7.10
2023-04-02T06:32:21.034Z,7.10
2023-04-02T06:37:34.634Z,7.10
2023-04-02T06:42:50.052Z,7.10
2023-04-02T06:48:17.024Z,7.20
2023-04-02T06:53:26.455Z,7.10
2023-04-02T06:58:29.812Z,7.20
2023-04-02T07:03:33.792Z,7.10
2023-04-02T07:08:46.533Z,7.10
2023-04-02T07:13:50.826Z,7.20
2023-04-02T07:18:55.933Z,7.20
2023-04-02T07:23:58.910Z,7.20
2023-04-02T07:29:00.661Z,7.30
2023-04-02T07:34:02.523Z,7.30
2023-04-02T07:39:04.615Z,7.30
2023-04-02T07:44:06.410Z,7.30
2023-04-02T07:49:08.221Z,7.30
2023-04-02T07:54:10.428Z,7.30
2023-04-02T07:59:12.237Z,7.30
2023-04-02T08:04:19.769Z,7.30
2023-04-02T08:09:21.939Z,7.40
2023-04-02T08:14:23.696Z,7.40
2023-04-02T08:19:25.795Z,7.50
2023-04-02T08:24:27.852Z,7.50
2023-04-02T08:29:32.216Z,7.50
2023-04-02T08:34:34.018Z,7.60
2023-04-02T08:39:36.158Z,7.70
2023-04-02T08:45:08.018Z,7.80
2023-04-02T08:50:35.064Z,7.90
2023-04-02T08:55:47.831Z,8.20
2023-04-02T09:00:54.482Z,8.30
2023-04-02T09:06:01.276Z,8.30
2023-04-02T09:11:07.938Z,8.30
2023-04-02T09:16:11.330Z,8.20
2023-04-02T09:21:23.291Z,8.10
2023-04-02T09:26:33.292Z,8.10
2023-04-02T09:31:39.499Z,8.20
2023-04-02T09:36:41.448Z,8.20
2023-04-02T09:41:43.843Z,8.30
2023-04-02T09:46:51.198Z,8.30
2023-04-02T09:52:11.586Z,8.40
2023-04-02T09:57:34.363Z,8.50
2023-04-02T10:02:36.776Z,8.50
2023-04-02T10:07:43.971Z,8.50
2023-04-02T10:12:49.442Z,8.40
2023-04-02T10:17:59.767Z,8.30
2023-04-02T10:23:01.693Z,8.40
2023-04-02T10:28:23.982Z,8.30
2023-04-02T10:33:50.480Z,8.40
2023-04-02T10:39:10.889Z,8.60
2023-04-02T10:44:21.949Z,8.80
2023-04-02T10:50:11.414Z,9.00
2023-04-02T10:55:26.210Z,9.00
2023-04-02T11:00:34.559Z,9.20
2023-04-02T11:05:44.036Z,9.20
2023-04-02T11:10:54.662Z,9.30
2023-04-02T11:15:56.812Z,9.40
2023-04-02T11:21:11.163Z,9.60
2023-04-02T11:26:37.510Z,9.60
2023-04-02T11:31:39.540Z,9.80
2023-04-02T11:36:50.755Z,9.70
2023-04-02T11:42:01.741Z,9.70
2023-04-02T11:47:25.114Z,9.60
2023-04-02T11:52:32.812Z,9.60
2023-04-02T11:57:51.814Z,9.70
2023-04-02T12:03:25.624Z,9.70
2023-04-02T12:08:58.229Z,9.60
2023-04-02T12:14:02.316Z,9.40
2023-04-02T12:19:09.484Z,9.20
2023-04-02T12:24:21.148Z,9.40
2023-04-02T12:29:24.058Z,9.30
2023-04-02T12:34:28.716Z,9.30
2023-04-02T12:39:34.371Z,9.40
2023-04-02T12:44:36.347Z,9.50
2023-04-02T12:49:40.216Z,9.50
2023-04-02T12:54:51.122Z,9.70
2023-04-02T13:00:01.160Z,9.60
2023-04-02T13:05:03.358Z,9.50
2023-04-02T13:10:23.228Z,9.20
2023-04-02T13:15:30.854Z,9.20
2023-04-02T13:20:39.999Z,9.30
2023-04-02T13:25:42.013Z,9.00
2023-04-02T13:30:43.785Z,8.90
2023-04-02T13:35:45.678Z,8.80
2023-04-02T13:40:47.591Z,8.70
2023-04-02T13:45:52.946Z,8.60
2023-04-02T13:50:54.844Z,8.50
2023-04-02T13:55:56.607Z,8.20
2023-04-02T14:00:58.432Z,8.00
2023-04-02T14:06:12.669Z,7.90
2023-04-02T14:11:56.303Z,7.70
2023-04-02T14:17:14.342Z,7.50
2023-04-02T14:22:28.522Z,7.40
2023-04-02T14:27:45.587Z,7.40
2023-04-02T14:33:24.103Z,7.20
2023-04-02T14:38:49.674Z,7.10
2023-04-02T14:44:06.845Z,7.10
2023-04-02T14:49:24.747Z,7.00
2023-04-02T14:54:50.326Z,6.80
2023-04-02T15:00:04.379Z,6.60
2023-04-02T15:05:18.429Z,6.50
2023-04-02T15:10:38.818Z,6.50
2023-04-02T15:15:56.487Z,6.50
2023-04-02T15:21:23.233Z,6.40
2023-04-02T15:26:41.538Z,6.20
2023-04-02T15:31:46.624Z,6.10
2023-04-02T15:37:03.056Z,5.80
2023-04-02T15:42:16.440Z,5.90
2023-04-02T15:47:37.029Z,5.80
2023-04-02T15:53:00.975Z,5.80
2023-04-02T15:58:22.938Z,5.60
2023-04-02T16:03:53.516Z,5.50
2023-04-02T16:09:30.633Z,5.40
2023-04-02T16:14:33.946Z,5.30
2023-04-02T16:19:41.278Z,5.30
2023-04-02T16:24:43.659Z,5.30
2023-04-02T16:30:14.677Z,5.20
2023-04-02T16:35:45.928Z,5.10
2023-04-02T16:41:09.438Z,5.10
2023-04-02T16:46:40.590Z,5.00
2023-04-02T16:51:46.387Z,5.00
2023-04-02T16:57:06.823Z,4.90
2023-04-02T17:02:33.238Z,4.90
2023-04-02T17:07:40.572Z,4.80
2023-04-02T17:12:47.763Z,4.70
2023-04-02T17:17:49.652Z,4.60
2023-04-02T17:22:52.763Z,4.50
2023-04-02T17:27:56.468Z,4.30
2023-04-02T17:32:58.291Z,4.30
2023-04-02T17:38:18.183Z,4.30
2023-04-02T17:43:47.956Z,4.10
2023-04-02T17:49:00.377Z,4.10
2023-04-02T17:54:30.760Z,4.00
2023-04-02T17:59:54.823Z,4.00
2023-04-02T18:05:11.848Z,3.90
2023-04-02T18:10:34.809Z,3.80
2023-04-02T18:15:46.148Z,3.80
2023-04-02T18:21:07.672Z,3.80
2023-04-02T18:26:44.285Z,3.60
2023-04-02T18:32:00.992Z,3.60
2023-04-02T18:37:17.371Z,3.50
2023-04-02T18:42:37.760Z,3.50
2023-04-02T18:47:45.843Z,3.40
2023-04-02T18:52:48.447Z,3.30
2023-04-02T18:57:55.504Z,3.30
2023-04-02T19:03:06.360Z,3.30
2023-04-02T19:08:24.279Z,3.30
2023-04-02T19:13:26.365Z,3.20
2023-04-02T19:18:50.432Z,3.20
2023-04-02T19:24:04.425Z,3.20
2023-04-02T19:29:28.044Z,3.20
2023-04-02T19:34:50.347Z,3.20
2023-04-02T19:40:29.789Z,3.10
2023-04-02T19:45:41.561Z,3.10
2023-04-02T19:50:44.711Z,3.10
2023-04-02T19:55:46.708Z,3.10
2023-04-02T20:00:48.454Z,3.00
2023-04-02T20:05:51.243Z,3.10
2023-04-02T20:10:53.221Z,3.10
2023-04-02T20:15:58.266Z,3.00
2023-04-02T20:21:04.497Z,2.90
2023-04-02T20:26:07.240Z,2.90
2023-04-02T20:31:14.568Z,2.90
2023-04-02T20:36:17.602Z,2.90
2023-04-02T20:41:20.008Z,2.80
2023-04-02T20:46:22.838Z,2.80
2023-04-02T20:51:24.670Z,2.80
2023-04-02T20:56:26.741Z,2.80
2023-04-02T21:01:30.364Z,2.90
2023-04-02T21:06:37.059Z,2.90
2023-04-02T21:11:38.851Z,2.90
2023-04-02T21:16:41.648Z,2.90
2023-04-02T21:21:44.832Z,2.90
2023-04-02T21:26:46.716Z,2.90
2023-04-02T21:31:48.481Z,2.90
2023-04-02T21:36:50.549Z,2.90
2023-04-02T21:41:53.706Z,2.90
2023-04-02T21:46:55.782Z,2.90
2023-04-02T21:51:57.630Z,2.90
2023-04-02T21:56:59.749Z,3.00
2023-04-02T22:02:01.564Z,3.00
2023-04-02T22:07:03.461Z,2.90
2023-04-02T22:12:07.884Z,2.90
2023-04-02T22:17:09.735Z,2.90
2023-04-02T22:22:11.531Z,2.90
2023-04-02T22:27:13.252Z,2.90
2023-04-02T22:32:15.031Z,2.90
2023-04-02T22:37:17.319Z,2.90
2023-04-02T22:42:19.062Z,2.90
2023-04-02T22:47:20.995Z,3.00
2023-04-02T22:52:22.789Z,3.00
2023-04-02T22:57:24.538Z,3.00
2023-04-02T23:02:27.101Z,3.10
2023-04-02T23:07:28.894Z,3.10
2023-04-02T23:12:30.976Z,3.10
2023-04-02T23:17:32.792Z,3.10
2023-04-02T23:22:36.822Z,3.10
2023-04-02T23:27:38.622Z,3.10
2023-04-02T23:32:40.526Z,3.20
2023-04-02T23:37:42.326Z,3.10
2023-04-02T23:42:44.113Z,3.10
2023-04-02T23:47:46.006Z,3.10
2023-04-02T23:52:47.786Z,3.20
2023-04-02T23:57:49.506Z,3.10
